sensor_id;sensor_type;location;lat;lon;timestamp;pressure;altitude;pressure_sealevel;temperature;humidity
37776;BME280;23614;33.774;130.514;2022-08-11T00:02:26;100296.44;;;32.34;43.08
37776;BME280;23614;33.774;130.514;2022-08-11T00:04:45;100298.19;;;32.16;42.77
37776;BME280;23614;33.774;130.514;2022-08-11T00:07:11;100301.23;;;31.20;42.87
37776;BME280;23614;33.774;130.514;2022-08-11T00:09:38;100303.34;;;32.34;42.95
37776;BME280;23614;33.774;130.514;2022-08-11T00:12:04;100300.88;;;32.10;42.64
37776;BME280;23614;33.774;130.514;2022-08-11T00:14:32;100302.89;;;32.49;42.45
37776;BME280;23614;33.774;130.514;2022-08-11T00:16:57;100298.97;;;33.01;41.43
37776;BME280;23614;33.774;130.514;2022-08-11T00:19:23;100293.57;;;32.57;42.05
37776;BME280;23614;33.774;130.514;2022-08-11T00:21:47;100298.08;;;32.90;41.93
37776;BME280;23614;33.774;130.514;2022-08-11T00:24:13;100303.49;;;32.10;41.95
37776;BME280;23614;33.774;130.514;2022-08-11T00:26:39;100307.35;;;32.59;41.74
37776;BME280;23614;33.774;130.514;2022-08-11T00:31:33;100302.34;;;33.21;40.43
37776;BME280;23614;33.774;130.514;2022-08-11T00:33:59;100301.55;;;33.58;40.28
37776;BME280;23614;33.774;130.514;2022-08-11T00:36:27;100300.83;;;32.83;41.51
37776;BME280;23614;33.774;130.514;2022-08-11T00:38:52;100304.81;;;32.90;41.52
37776;BME280;23614;33.774;130.514;2022-08-11T00:41:30;100302.35;;;33.20;41.10
37776;BME280;23614;33.774;130.514;2022-08-11T00:43:50;100298.92;;;32.01;43.09
37776;BME280;23614;33.774;130.514;2022-08-11T00:46:15;100296.72;;;32.38;42.57
37776;BME280;23614;33.774;130.514;2022-08-11T00:48:39;100295.40;;;33.44;40.90
37776;BME280;23614;33.774;130.514;2022-08-11T00:51:09;100293.82;;;33.57;40.22
37776;BME280;23614;33.774;130.514;2022-08-11T00:53:34;100298.58;;;32.97;41.15
37776;BME280;23614;33.774;130.514;2022-08-11T00:56:26;100297.21;;;33.09;41.26
37776;BME280;23614;33.774;130.514;2022-08-11T00:59:46;100298.92;;;32.85;41.35
37776;BME280;23614;33.774;130.514;2022-08-11T01:01:01;100298.91;;;33.24;40.86
37776;BME280;23614;33.774;130.514;2022-08-11T01:03:18;100294.70;;;32.97;40.99
37776;BME280;23614;33.774;130.514;2022-08-11T01:05:50;100289.74;;;33.61;39.52
37776;BME280;23614;33.774;130.514;2022-08-11T01:08:27;100289.71;;;34.01;38.58
37776;BME280;23614;33.774;130.514;2022-08-11T01:10:47;100294.09;;;34.35;38.28
37776;BME280;23614;33.774;130.514;2022-08-11T01:13:04;100290.96;;;34.00;38.17
37776;BME280;23614;33.774;130.514;2022-08-11T01:16:40;100291.77;;;33.59;38.57
37776;BME280;23614;33.774;130.514;2022-08-11T01:20:21;100302.80;;;32.82;39.73
37776;BME280;23614;33.774;130.514;2022-08-11T01:25:36;100286.84;;;33.70;37.43
37776;BME280;23614;33.774;130.514;2022-08-11T01:30:12;100295.95;;;34.29;36.74
37776;BME280;23614;33.774;130.514;2022-08-11T01:32:54;100299.73;;;34.52;36.40
37776;BME280;23614;33.774;130.514;2022-08-11T01:35:20;100307.69;;;34.58;36.52
37776;BME280;23614;33.774;130.514;2022-08-11T01:37:52;100308.44;;;35.21;34.63
37776;BME280;23614;33.774;130.514;2022-08-11T01:39:55;100308.45;;;34.25;34.15
37776;BME280;23614;33.774;130.514;2022-08-11T01:42:33;100315.99;;;33.99;34.19
37776;BME280;23614;33.774;130.514;2022-08-11T01:44:57;100308.93;;;34.10;34.02
37776;BME280;23614;33.774;130.514;2022-08-11T01:47:12;100309.67;;;34.18;33.73
37776;BME280;23614;33.774;130.514;2022-08-11T01:49:31;100307.97;;;34.15;33.64
37776;BME280;23614;33.774;130.514;2022-08-11T01:52:03;100308.84;;;34.24;34.37
37776;BME280;23614;33.774;130.514;2022-08-11T01:54:22;100311.35;;;33.80;34.68
37776;BME280;23614;33.774;130.514;2022-08-11T01:56:56;100314.04;;;33.75;33.98
37776;BME280;23614;33.774;130.514;2022-08-11T01:59:14;100314.46;;;34.03;34.03
37776;BME280;23614;33.774;130.514;2022-08-11T02:01:42;100316.44;;;34.28;34.66
37776;BME280;23614;33.774;130.514;2022-08-11T02:04:08;100325.75;;;33.52;35.12
37776;BME280;23614;33.774;130.514;2022-08-11T02:06:33;100317.59;;;34.25;35.32
37776;BME280;23614;33.774;130.514;2022-08-11T02:09:02;100317.99;;;33.80;35.45
37776;BME280;23614;33.774;130.514;2022-08-11T02:11:23;100321.44;;;33.87;34.43
37776;BME280;23614;33.774;130.514;2022-08-11T02:13:48;100318.47;;;34.77;33.72
37776;BME280;23614;33.774;130.514;2022-08-11T02:16:21;100317.96;;;34.79;33.09
37776;BME280;23614;33.774;130.514;2022-08-11T02:18:38;100324.23;;;35.00;33.49
37776;BME280;23614;33.774;130.514;2022-08-11T02:21:07;100317.10;;;34.43;33.61
37776;BME280;23614;33.774;130.514;2022-08-11T02:23:32;100310.18;;;35.15;32.57
37776;BME280;23614;33.774;130.514;2022-08-11T02:25:56;100307.91;;;34.82;33.47
37776;BME280;23614;33.774;130.514;2022-08-11T02:28:22;100304.14;;;35.06;32.83
37776;BME280;23614;33.774;130.514;2022-08-11T02:31:05;100304.98;;;34.71;32.99
37776;BME280;23614;33.774;130.514;2022-08-11T02:33:19;100306.10;;;34.27;33.56
37776;BME280;23614;33.774;130.514;2022-08-11T02:35:43;100302.93;;;34.74;33.43
37776;BME280;23614;33.774;130.514;2022-08-11T02:38:13;100301.08;;;35.42;32.67
37776;BME280;23614;33.774;130.514;2022-08-11T02:40:46;100300.20;;;35.53;32.49
37776;BME280;23614;33.774;130.514;2022-08-11T02:43:07;100304.12;;;35.28;32.51
37776;BME280;23614;33.774;130.514;2022-08-11T02:45:44;100309.63;;;33.95;34.48
37776;BME280;23614;33.774;130.514;2022-08-11T02:47:53;100309.11;;;33.98;34.62
37776;BME280;23614;33.774;130.514;2022-08-11T02:50:18;100301.87;;;34.89;33.62
37776;BME280;23614;33.774;130.514;2022-08-11T02:52:46;100303.35;;;33.83;34.73
37776;BME280;23614;33.774;130.514;2022-08-11T02:55:18;100304.02;;;34.45;34.10
37776;BME280;23614;33.774;130.514;2022-08-11T02:57:34;100301.63;;;34.15;34.63
37776;BME280;23614;33.774;130.514;2022-08-11T03:00:03;100298.07;;;35.14;33.72
37776;BME280;23614;33.774;130.514;2022-08-11T03:02:32;100297.88;;;35.34;33.40
37776;BME280;23614;33.774;130.514;2022-08-11T03:04:59;100301.58;;;34.17;34.84
37776;BME280;23614;33.774;130.514;2022-08-11T03:07:22;100291.85;;;33.89;34.98
37776;BME280;23614;33.774;130.514;2022-08-11T03:09:48;100288.25;;;33.39;35.36
37776;BME280;23614;33.774;130.514;2022-08-11T03:12:12;100281.92;;;34.31;34.23
37776;BME280;23614;33.774;130.514;2022-08-11T03:14:39;100279.61;;;34.01;34.58
37776;BME280;23614;33.774;130.514;2022-08-11T03:17:05;100285.70;;;33.62;34.89
37776;BME280;23614;33.774;130.514;2022-08-11T03:19:45;100284.62;;;34.60;34.01
37776;BME280;23614;33.774;130.514;2022-08-11T03:22:01;100291.60;;;32.98;35.87
37776;BME280;23614;33.774;130.514;2022-08-11T03:24:20;100288.61;;;33.19;36.06
37776;BME280;23614;33.774;130.514;2022-08-11T03:26:50;100284.55;;;33.62;35.27
37776;BME280;23614;33.774;130.514;2022-08-11T03:29:19;100282.06;;;33.86;34.85
37776;BME280;23614;33.774;130.514;2022-08-11T03:31:39;100282.91;;;33.87;34.02
37776;BME280;23614;33.774;130.514;2022-08-11T03:34:04;100285.60;;;33.00;35.33
37776;BME280;23614;33.774;130.514;2022-08-11T03:37:18;100280.07;;;33.35;35.62
37776;BME280;23614;33.774;130.514;2022-08-11T03:39:07;100277.88;;;33.77;35.42
37776;BME280;23614;33.774;130.514;2022-08-11T03:41:28;100275.27;;;34.20;35.41
37776;BME280;23614;33.774;130.514;2022-08-11T03:44:01;100276.28;;;34.39;35.57
37776;BME280;23614;33.774;130.514;2022-08-11T03:46:16;100269.66;;;34.21;36.18
37776;BME280;23614;33.774;130.514;2022-08-11T03:48:47;100271.11;;;33.71;37.58
37776;BME280;23614;33.774;130.514;2022-08-11T03:51:12;100269.42;;;32.97;39.97
37776;BME280;23614;33.774;130.514;2022-08-11T03:53:52;100265.42;;;33.09;39.61
37776;BME280;23614;33.774;130.514;2022-08-11T03:56:24;100264.37;;;33.86;38.81
37776;BME280;23614;33.774;130.514;2022-08-11T04:01:06;100269.84;;;33.72;38.14
37776;BME280;23614;33.774;130.514;2022-08-11T04:08:20;100263.10;;;33.27;37.31
37776;BME280;23614;33.774;130.514;2022-08-11T04:10:47;100269.37;;;34.29;36.26
37776;BME280;23614;33.774;130.514;2022-08-11T04:18:21;100274.62;;;34.37;36.50
37776;BME280;23614;33.774;130.514;2022-08-11T04:20:36;100271.84;;;34.10;36.73
37776;BME280;23614;33.774;130.514;2022-08-11T04:23:24;100270.82;;;33.80;37.26
37776;BME280;23614;33.774;130.514;2022-08-11T04:25:28;100262.45;;;33.18;38.37
37776;BME280;23614;33.774;130.514;2022-08-11T04:28:13;100258.08;;;34.12;37.66
37776;BME280;23614;33.774;130.514;2022-08-11T04:30:07;100261.52;;;34.19;37.24
37776;BME280;23614;33.774;130.514;2022-08-11T04:32:46;100258.03;;;33.72;38.11
37776;BME280;23614;33.774;130.514;2022-08-11T04:35:33;100257.42;;;33.76;38.18
37776;BME280;23614;33.774;130.514;2022-08-11T04:37:35;100253.42;;;34.06;38.38
37776;BME280;23614;33.774;130.514;2022-08-11T04:40:02;100252.84;;;34.14;38.03
37776;BME280;23614;33.774;130.514;2022-08-11T04:47:19;100243.00;;;35.01;37.02
37776;BME280;23614;33.774;130.514;2022-08-11T04:50:38;100243.62;;;34.65;37.63
37776;BME280;23614;33.774;130.514;2022-08-11T04:52:15;100247.55;;;34.24;36.28
